sensor_id;sensor_type;location;lat;lon;timestamp;P1;durP1;ratioP1;P2;durP2;ratioP2
25637;SDS011;13496;51.040;13.680;2022-08-19T00:04:35;8.07;;;7.43;;
25637;SDS011;13496;51.040;13.680;2022-08-19T00:09:37;7.10;;;6.50;;
25637;SDS011;13496;51.040;13.680;2022-08-19T00:14:39;7.40;;;6.90;;
25637;SDS011;13496;51.040;13.680;2022-08-19T00:19:42;7.30;;;6.80;;
25637;SDS011;13496;51.040;13.680;2022-08-19T00:24:44;7.13;;;6.63;;
25637;SDS011;13496;51.040;13.680;2022-08-19T00:29:46;8.45;;;7.75;;
25637;SDS011;13496;51.040;13.680;2022-08-19T00:34:48;8.00;;;7.25;;
25637;SDS011;13496;51.040;13.680;2022-08-19T00:39:50;7.32;;;6.82;;
25637;SDS011;13496;51.040;13.680;2022-08-19T00:44:52;7.53;;;6.93;;
25637;SDS011;13496;51.040;13.680;2022-08-19T00:49:56;7.90;;;7.28;;
25637;SDS011;13496;51.040;13.680;2022-08-19T00:54:58;7.85;;;7.25;;
25637;SDS011;13496;51.040;13.680;2022-08-19T01:00:01;8.13;;;7.35;;
25637;SDS011;13496;51.040;13.680;2022-08-19T01:05:09;7.57;;;6.97;;
25637;SDS011;13496;51.040;13.680;2022-08-19T01:10:15;7.95;;;7.35;;
25637;SDS011;13496;51.040;13.680;2022-08-19T01:15:23;7.43;;;6.93;;
25637;SDS011;13496;51.040;13.680;2022-08-19T01:20:29;8.15;;;7.53;;
25637;SDS011;13496;51.040;13.680;2022-08-19T01:25:32;7.45;;;6.90;;
25637;SDS011;13496;51.040;13.680;2022-08-19T01:30:40;8.02;;;7.43;;
25637;SDS011;13496;51.040;13.680;2022-08-19T01:35:41;7.22;;;6.72;;
25637;SDS011;13496;51.040;13.680;2022-08-19T01:40:43;7.57;;;6.95;;
25637;SDS011;13496;51.040;13.680;2022-08-19T01:45:45;8.23;;;7.63;;
25637;SDS011;13496;51.040;13.680;2022-08-19T01:50:47;8.10;;;7.50;;
25637;SDS011;13496;51.040;13.680;2022-08-19T01:55:52;8.00;;;7.32;;
25637;SDS011;13496;51.040;13.680;2022-08-19T02:00:54;7.95;;;7.25;;
25637;SDS011;13496;51.040;13.680;2022-08-19T02:05:56;8.32;;;7.63;;
25637;SDS011;13496;51.040;13.680;2022-08-19T02:11:00;8.65;;;7.95;;
25637;SDS011;13496;51.040;13.680;2022-08-19T02:16:02;8.70;;;8.00;;
25637;SDS011;13496;51.040;13.680;2022-08-19T02:21:04;9.02;;;8.25;;
25637;SDS011;13496;51.040;13.680;2022-08-19T02:26:06;7.88;;;7.18;;
25637;SDS011;13496;51.040;13.680;2022-08-19T02:31:09;8.10;;;7.30;;
25637;SDS011;13496;51.040;13.680;2022-08-19T02:36:12;8.82;;;8.02;;
25637;SDS011;13496;51.040;13.680;2022-08-19T02:41:16;7.80;;;7.20;;
25637;SDS011;13496;51.040;13.680;2022-08-19T02:46:24;8.23;;;7.53;;
25637;SDS011;13496;51.040;13.680;2022-08-19T02:51:30;8.13;;;7.47;;
25637;SDS011;13496;51.040;13.680;2022-08-19T02:56:34;8.63;;;7.93;;
25637;SDS011;13496;51.040;13.680;2022-08-19T03:01:38;8.23;;;7.53;;
25637;SDS011;13496;51.040;13.680;2022-08-19T03:06:42;8.63;;;7.95;;
25637;SDS011;13496;51.040;13.680;2022-08-19T03:11:46;8.02;;;7.38;;
25637;SDS011;13496;51.040;13.680;2022-08-19T03:16:48;9.35;;;8.52;;
25637;SDS011;13496;51.040;13.680;2022-08-19T03:21:51;8.65;;;7.95;;
25637;SDS011;13496;51.040;13.680;2022-08-19T03:26:54;8.52;;;7.82;;
25637;SDS011;13496;51.040;13.680;2022-08-19T03:32:00;9.07;;;8.27;;
25637;SDS011;13496;51.040;13.680;2022-08-19T03:37:09;8.40;;;7.70;;
25637;SDS011;13496;51.040;13.680;2022-08-19T03:42:13;8.60;;;8.00;;
25637;SDS011;13496;51.040;13.680;2022-08-19T03:47:15;8.50;;;7.80;;
25637;SDS011;13496;51.040;13.680;2022-08-19T03:52:17;9.15;;;8.27;;
25637;SDS011;13496;51.040;13.680;2022-08-19T03:57:19;8.23;;;7.53;;
25637;SDS011;13496;51.040;13.680;2022-08-19T04:02:20;8.25;;;7.57;;
25637;SDS011;13496;51.040;13.680;2022-08-19T04:07:23;7.80;;;7.22;;
25637;SDS011;13496;51.040;13.680;2022-08-19T04:12:24;8.88;;;8.18;;
25637;SDS011;13496;51.040;13.680;2022-08-19T04:17:26;7.53;;;6.90;;
25637;SDS011;13496;51.040;13.680;2022-08-19T04:22:28;8.32;;;7.72;;
25637;SDS011;13496;51.040;13.680;2022-08-19T04:27:31;8.77;;;8.02;;
25637;SDS011;13496;51.040;13.680;2022-08-19T04:32:34;8.63;;;7.93;;
25637;SDS011;13496;51.040;13.680;2022-08-19T04:37:36;8.15;;;7.55;;
25637;SDS011;13496;51.040;13.680;2022-08-19T04:42:39;8.13;;;7.50;;
25637;SDS011;13496;51.040;13.680;2022-08-19T04:47:41;8.15;;;7.53;;
25637;SDS011;13496;51.040;13.680;2022-08-19T04:52:45;8.40;;;7.70;;
25637;SDS011;13496;51.040;13.680;2022-08-19T04:57:47;8.05;;;7.45;;
25637;SDS011;13496;51.040;13.680;2022-08-19T05:02:48;8.38;;;7.68;;
25637;SDS011;13496;51.040;13.680;2022-08-19T05:07:50;8.25;;;7.65;;
25637;SDS011;13496;51.040;13.680;2022-08-19T05:12:52;8.10;;;7.40;;
25637;SDS011;13496;51.040;13.680;2022-08-19T05:17:54;9.07;;;8.27;;
25637;SDS011;13496;51.040;13.680;2022-08-19T05:23:14;8.00;;;7.40;;
25637;SDS011;13496;51.040;13.680;2022-08-19T05:28:17;8.60;;;7.90;;
25637;SDS011;13496;51.040;13.680;2022-08-19T05:33:20;8.73;;;8.02;;
25637;SDS011;13496;51.040;13.680;2022-08-19T05:38:22;8.15;;;7.50;;
25637;SDS011;13496;51.040;13.680;2022-08-19T05:43:24;8.82;;;8.10;;
25637;SDS011;13496;51.040;13.680;2022-08-19T05:48:26;8.82;;;8.05;;
25637;SDS011;13496;51.040;13.680;2022-08-19T05:53:28;8.05;;;7.35;;
25637;SDS011;13496;51.040;13.680;2022-08-19T05:58:30;8.43;;;7.72;;
25637;SDS011;13496;51.040;13.680;2022-08-19T06:03:33;8.30;;;7.50;;
25637;SDS011;13496;51.040;13.680;2022-08-19T06:08:37;8.48;;;7.45;;
25637;SDS011;13496;51.040;13.680;2022-08-19T06:13:39;7.78;;;7.18;;
25637;SDS011;13496;51.040;13.680;2022-08-19T06:18:41;8.23;;;7.53;;
25637;SDS011;13496;51.040;13.680;2022-08-19T06:23:44;8.45;;;7.68;;
25637;SDS011;13496;51.040;13.680;2022-08-19T06:28:49;8.00;;;7.30;;
25637;SDS011;13496;51.040;13.680;2022-08-19T06:33:52;8.45;;;7.72;;
25637;SDS011;13496;51.040;13.680;2022-08-19T06:38:54;7.95;;;7.35;;
25637;SDS011;13496;51.040;13.680;2022-08-19T06:43:56;7.70;;;7.10;;
25637;SDS011;13496;51.040;13.680;2022-08-19T06:48:58;8.20;;;7.53;;
25637;SDS011;13496;51.040;13.680;2022-08-19T06:54:00;7.25;;;6.65;;
25637;SDS011;13496;51.040;13.680;2022-08-19T06:59:07;7.03;;;6.53;;
25637;SDS011;13496;51.040;13.680;2022-08-19T07:04:10;7.30;;;6.65;;
25637;SDS011;13496;51.040;13.680;2022-08-19T07:09:13;7.45;;;6.82;;
25637;SDS011;13496;51.040;13.680;2022-08-19T07:14:17;7.20;;;6.60;;
25637;SDS011;13496;51.040;13.680;2022-08-19T07:19:21;6.90;;;6.40;;
25637;SDS011;13496;51.040;13.680;2022-08-19T07:24:25;6.75;;;6.25;;
25637;SDS011;13496;51.040;13.680;2022-08-19T07:29:29;7.32;;;6.70;;
25637;SDS011;13496;51.040;13.680;2022-08-19T07:34:34;7.45;;;6.85;;
25637;SDS011;13496;51.040;13.680;2022-08-19T07:39:38;7.20;;;6.60;;
25637;SDS011;13496;51.040;13.680;2022-08-19T07:44:40;6.85;;;6.25;;
25637;SDS011;13496;51.040;13.680;2022-08-19T07:49:43;6.80;;;6.30;;
25637;SDS011;13496;51.040;13.680;2022-08-19T07:54:44;7.07;;;6.50;;
25637;SDS011;13496;51.040;13.680;2022-08-19T07:59:46;7.18;;;6.57;;
25637;SDS011;13496;51.040;13.680;2022-08-19T08:04:48;6.95;;;6.35;;
25637;SDS011;13496;51.040;13.680;2022-08-19T08:10:08;6.95;;;6.40;;
25637;SDS011;13496;51.040;13.680;2022-08-19T08:15:13;7.40;;;6.70;;
25637;SDS011;13496;51.040;13.680;2022-08-19T08:20:19;6.50;;;6.00;;
25637;SDS011;13496;51.040;13.680;2022-08-19T08:25:22;6.50;;;6.00;;
25637;SDS011;13496;51.040;13.680;2022-08-19T08:30:24;6.95;;;6.13;;
25637;SDS011;13496;51.040;13.680;2022-08-19T08:35:28;6.65;;;6.15;;
25637;SDS011;13496;51.040;13.680;2022-08-19T08:40:37;6.40;;;5.90;;
25637;SDS011;13496;51.040;13.680;2022-08-19T08:51:22;6.82;;;6.22;;
25637;SDS011;13496;51.040;13.680;2022-08-19T08:56:28;6.53;;;6.03;;
25637;SDS011;13496;51.040;13.680;2022-08-19T09:01:29;6.70;;;6.10;;
25637;SDS011;13496;51.040;13.680;2022-08-19T09:06:45;6.07;;;5.57;;
25637;SDS011;13496;51.040;13.680;2022-08-19T09:12:07;6.03;;;5.53;;
25637;SDS011;13496;51.040;13.680;2022-08-19T09:17:14;6.13;;;5.63;;
25637;SDS011;13496;51.040;13.680;2022-08-19T09:22:16;6.30;;;5.80;;
25637;SDS011;13496;51.040;13.680;2022-08-19T09:27:18;5.60;;;5.20;;
25637;SDS011;13496;51.040;13.680;2022-08-19T09:32:22;5.68;;;5.15;;
25637;SDS011;13496;51.040;13.680;2022-08-19T09:37:25;6.13;;;5.63;;
25637;SDS011;13496;51.040;13.680;2022-08-19T09:42:27;6.05;;;5.57;;
25637;SDS011;13496;51.040;13.680;2022-08-19T09:47:28;6.32;;;5.82;;
25637;SDS011;13496;51.040;13.680;2022-08-19T09:52:30;5.82;;;5.43;;
25637;SDS011;13496;51.040;13.680;2022-08-19T09:57:32;5.90;;;5.50;;
25637;SDS011;13496;51.040;13.680;2022-08-19T10:02:34;6.20;;;5.70;;
25637;SDS011;13496;51.040;13.680;2022-08-19T10:07:37;6.15;;;5.68;;
25637;SDS011;13496;51.040;13.680;2022-08-19T10:12:39;6.20;;;5.70;;
25637;SDS011;13496;51.040;13.680;2022-08-19T10:17:40;6.40;;;5.90;;
25637;SDS011;13496;51.040;13.680;2022-08-19T10:22:42;6.18;;;5.70;;
25637;SDS011;13496;51.040;13.680;2022-08-19T10:27:44;6.00;;;5.50;;
25637;SDS011;13496;51.040;13.680;2022-08-19T10:32:46;6.15;;;5.65;;
25637;SDS011;13496;51.040;13.680;2022-08-19T10:37:48;6.10;;;5.60;;
25637;SDS011;13496;51.040;13.680;2022-08-19T10:42:49;6.00;;;5.60;;
25637;SDS011;13496;51.040;13.680;2022-08-19T10:47:54;6.00;;;5.47;;
25637;SDS011;13496;51.040;13.680;2022-08-19T10:52:56;6.10;;;5.60;;
25637;SDS011;13496;51.040;13.680;2022-08-19T10:57:58;38.03;;;26.77;;
25637;SDS011;13496;51.040;13.680;2022-08-19T11:03:00;24.10;;;16.05;;
25637;SDS011;13496;51.040;13.680;2022-08-19T11:08:02;31.30;;;23.42;;
25637;SDS011;13496;51.040;13.680;2022-08-19T11:13:04;40.40;;;27.30;;
25637;SDS011;13496;51.040;13.680;2022-08-19T11:18:05;35.60;;;24.00;;
25637;SDS011;13496;51.040;13.680;2022-08-19T11:23:07;38.10;;;23.98;;
25637;SDS011;13496;51.040;13.680;2022-08-19T11:28:09;29.08;;;20.77;;
25637;SDS011;13496;51.040;13.680;2022-08-19T11:33:11;25.17;;;17.38;;
25637;SDS011;13496;51.040;13.680;2022-08-19T11:38:12;27.92;;;18.38;;
25637;SDS011;13496;51.040;13.680;2022-08-19T11:43:16;22.85;;;16.25;;
25637;SDS011;13496;51.040;13.680;2022-08-19T11:48:19;20.52;;;14.90;;
25637;SDS011;13496;51.040;13.680;2022-08-19T11:53:24;17.67;;;13.30;;
25637;SDS011;13496;51.040;13.680;2022-08-19T11:58:26;15.02;;;12.90;;
25637;SDS011;13496;51.040;13.680;2022-08-19T12:03:28;15.20;;;12.68;;
25637;SDS011;13496;51.040;13.680;2022-08-19T12:08:30;12.00;;;10.80;;
25637;SDS011;13496;51.040;13.680;2022-08-19T12:13:32;14.32;;;11.18;;
25637;SDS011;13496;51.040;13.680;2022-08-19T12:18:34;13.13;;;10.65;;
25637;SDS011;13496;51.040;13.680;2022-08-19T12:23:36;13.73;;;11.00;;
25637;SDS011;13496;51.040;13.680;2022-08-19T12:28:38;12.23;;;10.77;;
25637;SDS011;13496;51.040;13.680;2022-08-19T12:33:40;11.95;;;10.27;;
25637;SDS011;13496;51.040;13.680;2022-08-19T12:38:43;10.05;;;9.05;;
25637;SDS011;13496;51.040;13.680;2022-08-19T12:43:45;11.10;;;10.00;;
25637;SDS011;13496;51.040;13.680;2022-08-19T12:48:48;10.82;;;8.98;;
25637;SDS011;13496;51.040;13.680;2022-08-19T12:53:49;10.15;;;9.15;;
25637;SDS011;13496;51.040;13.680;2022-08-19T12:58:51;10.82;;;9.52;;
25637;SDS011;13496;51.040;13.680;2022-08-19T13:03:53;9.45;;;8.52;;
25637;SDS011;13496;51.040;13.680;2022-08-19T13:08:54;9.55;;;8.68;;
25637;SDS011;13496;51.040;13.680;2022-08-19T13:13:56;9.60;;;8.70;;
25637;SDS011;13496;51.040;13.680;2022-08-19T13:18:58;9.18;;;8.30;;
25637;SDS011;13496;51.040;13.680;2022-08-19T13:24:00;9.25;;;8.40;;
25637;SDS011;13496;51.040;13.680;2022-08-19T13:29:02;9.05;;;8.15;;
25637;SDS011;13496;51.040;13.680;2022-08-19T13:34:27;9.18;;;8.40;;
25637;SDS011;13496;51.040;13.680;2022-08-19T13:39:31;8.65;;;7.60;;
25637;SDS011;13496;51.040;13.680;2022-08-19T13:44:34;9.52;;;8.73;;
25637;SDS011;13496;51.040;13.680;2022-08-19T13:49:36;8.52;;;7.82;;
25637;SDS011;13496;51.040;13.680;2022-08-19T13:54:38;8.38;;;7.57;;
25637;SDS011;13496;51.040;13.680;2022-08-19T13:59:39;8.75;;;7.97;;
25637;SDS011;13496;51.040;13.680;2022-08-19T14:04:41;9.18;;;8.38;;
25637;SDS011;13496;51.040;13.680;2022-08-19T14:09:43;9.02;;;8.23;;
25637;SDS011;13496;51.040;13.680;2022-08-19T14:14:44;8.95;;;8.18;;
25637;SDS011;13496;51.040;13.680;2022-08-19T14:19:46;9.40;;;8.45;;
25637;SDS011;13496;51.040;13.680;2022-08-19T14:24:48;8.23;;;7.53;;
25637;SDS011;13496;51.040;13.680;2022-08-19T14:29:51;8.95;;;8.25;;
25637;SDS011;13496;51.040;13.680;2022-08-19T14:34:53;9.48;;;8.68;;
25637;SDS011;13496;51.040;13.680;2022-08-19T14:39:55;8.77;;;8.07;;
25637;SDS011;13496;51.040;13.680;2022-08-19T14:44:58;8.68;;;7.97;;
25637;SDS011;13496;51.040;13.680;2022-08-19T14:50:00;9.13;;;8.32;;
25637;SDS011;13496;51.040;13.680;2022-08-19T14:55:03;8.70;;;8.00;;
25637;SDS011;13496;51.040;13.680;2022-08-19T15:00:05;8.75;;;7.95;;
25637;SDS011;13496;51.040;13.680;2022-08-19T15:05:08;9.20;;;8.50;;
25637;SDS011;13496;51.040;13.680;2022-08-19T15:10:11;9.48;;;8.77;;
25637;SDS011;13496;51.040;13.680;2022-08-19T15:15:13;8.70;;;8.00;;
25637;SDS011;13496;51.040;13.680;2022-08-19T15:20:19;8.70;;;7.90;;
25637;SDS011;13496;51.040;13.680;2022-08-19T15:25:22;9.80;;;8.90;;
25637;SDS011;13496;51.040;13.680;2022-08-19T15:30:25;8.55;;;7.85;;
25637;SDS011;13496;51.040;13.680;2022-08-19T15:35:28;9.27;;;8.52;;
25637;SDS011;13496;51.040;13.680;2022-08-19T15:40:30;9.15;;;8.38;;
25637;SDS011;13496;51.040;13.680;2022-08-19T15:45:32;9.63;;;8.93;;
25637;SDS011;13496;51.040;13.680;2022-08-19T15:50:33;8.20;;;7.60;;
25637;SDS011;13496;51.040;13.680;2022-08-19T15:55:41;9.20;;;8.48;;
25637;SDS011;13496;51.040;13.680;2022-08-19T16:00:45;8.90;;;8.20;;
25637;SDS011;13496;51.040;13.680;2022-08-19T16:06:05;9.70;;;8.90;;
25637;SDS011;13496;51.040;13.680;2022-08-19T16:11:29;34.15;;;14.60;;
25637;SDS011;13496;51.040;13.680;2022-08-19T16:16:33;25.30;;;21.05;;
25637;SDS011;13496;51.040;13.680;2022-08-19T16:21:35;28.50;;;21.63;;
25637;SDS011;13496;51.040;13.680;2022-08-19T16:26:38;24.08;;;21.80;;
25637;SDS011;13496;51.040;13.680;2022-08-19T16:31:42;24.02;;;21.83;;
25637;SDS011;13496;51.040;13.680;2022-08-19T16:36:45;22.27;;;20.00;;
25637;SDS011;13496;51.040;13.680;2022-08-19T16:41:47;23.65;;;21.17;;
25637;SDS011;13496;51.040;13.680;2022-08-19T16:46:48;24.58;;;22.02;;
25637;SDS011;13496;51.040;13.680;2022-08-19T16:51:51;21.95;;;19.73;;
25637;SDS011;13496;51.040;13.680;2022-08-19T16:56:53;21.63;;;19.42;;
25637;SDS011;13496;51.040;13.680;2022-08-19T17:01:56;24.98;;;22.45;;
25637;SDS011;13496;51.040;13.680;2022-08-19T17:06:58;23.58;;;21.17;;
25637;SDS011;13496;51.040;13.680;2022-08-19T17:11:59;24.90;;;22.60;;
25637;SDS011;13496;51.040;13.680;2022-08-19T17:17:01;22.83;;;20.40;;
25637;SDS011;13496;51.040;13.680;2022-08-19T17:22:03;20.02;;;18.13;;
25637;SDS011;13496;51.040;13.680;2022-08-19T17:27:05;20.70;;;18.70;;
25637;SDS011;13496;51.040;13.680;2022-08-19T17:32:07;19.58;;;17.80;;
25637;SDS011;13496;51.040;13.680;2022-08-19T17:37:10;21.13;;;18.90;;
25637;SDS011;13496;51.040;13.680;2022-08-19T17:42:12;21.52;;;17.05;;
25637;SDS011;13496;51.040;13.680;2022-08-19T17:47:14;19.92;;;18.02;;
25637;SDS011;13496;51.040;13.680;2022-08-19T17:52:16;19.60;;;17.70;;
25637;SDS011;13496;51.040;13.680;2022-08-19T17:57:18;19.67;;;17.60;;
25637;SDS011;13496;51.040;13.680;2022-08-19T18:02:21;20.55;;;18.23;;
25637;SDS011;13496;51.040;13.680;2022-08-19T18:07:23;21.30;;;19.40;;
25637;SDS011;13496;51.040;13.680;2022-08-19T18:12:25;21.17;;;19.08;;
25637;SDS011;13496;51.040;13.680;2022-08-19T18:17:27;18.65;;;16.80;;
25637;SDS011;13496;51.040;13.680;2022-08-19T18:22:30;19.55;;;17.58;;
25637;SDS011;13496;51.040;13.680;2022-08-19T18:27:37;21.48;;;19.27;;
25637;SDS011;13496;51.040;13.680;2022-08-19T18:32:40;21.05;;;18.83;;
25637;SDS011;13496;51.040;13.680;2022-08-19T18:37:44;24.55;;;19.17;;
